Time;durP1;ratioP1;P1;durP2;ratioP2;P2;SDS_P1;SDS_P2;PMS_P1;PMS_P2;Temp;Humidity;BMP_temperature;BMP_pressure;BME280_temperature;BME280_humidity;BME280_pressure;Samples;Min_cycle;Max_cycle;Signal;HPM_P1;HPM_P2
2022/04/04 00:00:05;;;;;;;;;;;3.30;99.90;3.90;99939.00;;;;345757;28;91151;-88
2022/04/04 00:00:17;;;;;;;;;;;3.30;99.90;3.90;99943.00;;;;346769;27;86985;-88
2022/04/04 00:00:29;;;;;;;;;;;3.30;99.90;3.90;99939.00;;;;345996;28;89454;-88
2022/04/04 00:00:45;;;;;;;;;;;3.30;99.90;3.90;99934.00;;;;345406;28;88450;-88
2022/04/04 00:00:57;;;;;;;;;;;3.30;99.90;3.90;99936.00;;;;345354;28;90876;-88
2022/04/04 00:01:08;;;;;;;;;;;3.30;99.90;3.90;99927.00;;;;348564;27;86527;-88
2022/04/04 00:01:20;;;;;;;;;;;3.30;99.90;3.90;99934.00;;;;344489;28;90175;-88
2022/04/04 00:01:32;;;;;;;;;;;3.30;99.90;3.90;99936.00;;;;345710;28;86860;-88
2022/04/04 00:01:44;;;;;;;;;;;3.30;99.90;3.90;99935.00;;;;347713;27;90639;-87
2022/04/04 00:01:56;;;;;;;;;;;3.30;99.90;3.90;99934.00;;;;345658;28;88029;-88
2022/04/04 00:02:07;;;;;;;;;;;3.30;99.90;3.90;99936.00;;;;346572;28;89802;-88
2022/04/04 00:02:19;;;;;;;;;;;3.30;99.90;3.90;99931.00;;;;347090;28;88007;-88
2022/04/04 00:02:31;;;;;;;;;;;3.30;99.90;4.00;99935.00;;;;347148;28;90796;-88
2022/04/04 00:02:43;;;;;;;;;;;3.30;99.90;4.00;99935.00;;;;347032;28;87698;-88
2022/04/04 00:02:55;;;;;;;;;;;3.30;99.90;4.00;99934.00;;;;344572;28;88379;-88
2022/04/04 00:03:07;;;;;;;;;;;3.30;99.90;3.80;99942.00;;;;346346;28;86931;-88
2022/04/04 00:03:20;;;;;;;;;;;3.30;99.90;3.90;99938.00;;;;347241;28;89826;-88
2022/04/04 00:03:32;;;;;;;;;;;3.30;99.90;3.90;99934.00;;;;345478;28;88395;-87
2022/04/04 00:03:44;;;;;;;;;;;3.30;99.90;3.90;99935.00;;;;346786;28;95330;-88
2022/04/04 00:03:56;;;;;;;;;;;3.30;99.90;3.90;99941.00;;;;346880;28;87053;-88
2022/04/04 00:04:08;;;;;;;;;;;3.30;99.90;3.90;99936.00;;;;344404;28;91178;-88
2022/04/04 00:04:20;;;;;;;;;;;3.30;99.90;3.90;99937.00;;;;345618;28;87881;-88
2022/04/04 00:04:32;;;;;;;;;;;3.30;99.90;3.90;99941.00;;;;346806;28;91063;-88
2022/04/04 00:04:43;;;;;;;;;;;3.30;99.90;3.90;99946.00;;;;344177;28;88454;-88
2022/04/04 00:04:55;;;;;;;;;;;3.30;99.90;3.80;99956.00;;;;345832;28;89361;-88
2022/04/04 00:05:07;;;;;;;;;;;3.30;99.90;3.80;99939.00;;;;345730;28;87990;-88
2022/04/04 00:05:21;;;;;;;;;;;3.30;99.90;3.90;99950.00;;;;345974;28;87432;-88
2022/04/04 00:05:33;;;;;;;;;;;3.30;99.90;3.90;99941.00;;;;346965;28;87025;-88
2022/04/04 00:05:44;;;;;;;;;;;3.30;99.90;3.90;99937.00;;;;348603;27;90668;-88
2022/04/04 00:05:56;;;;;;;;;;;3.30;99.90;3.80;99942.00;;;;348341;27;87781;-88
2022/04/04 00:06:08;;;;;;;;;;;3.30;99.90;3.70;99944.00;;;;347077;27;90563;-87
2022/04/04 00:06:20;;;;;;;;;;;3.30;99.90;3.80;99945.00;;;;348473;27;86966;-88
2022/04/04 00:06:33;;;;;;;;;;;3.30;99.90;3.80;99950.00;;;;346865;28;89970;-89
2022/04/04 00:06:44;;;;;;;;;;;3.30;99.90;3.80;99944.00;;;;345683;28;86047;-88
2022/04/04 00:06:59;;;;;;;;;;;3.30;99.90;3.80;99944.00;;;;345927;28;89979;-88
2022/04/04 00:07:11;;;;;;;;;;;3.30;99.90;3.80;99940.00;;;;344306;28;85312;-88
2022/04/04 00:07:23;;;;;;;;;;;3.30;99.90;3.70;99948.00;;;;346736;28;88897;-88
2022/04/04 00:07:35;;;;;;;;;;;3.30;99.90;3.80;99944.00;;;;348395;27;87911;-88
2022/04/04 00:07:47;;;;;;;;;;;3.30;99.90;3.80;99947.00;;;;348741;27;89531;-88
2022/04/04 00:07:59;;;;;;;;;;;3.30;99.90;3.70;99943.00;;;;346948;28;87112;-88
2022/04/04 00:08:10;;;;;;;;;;;3.20;99.90;3.70;99946.00;;;;347138;28;90256;-87
2022/04/04 00:08:22;;;;;;;;;;;3.20;99.90;3.80;99946.00;;;;347080;28;86973;-88
2022/04/04 00:08:35;;;;;;;;;;;3.20;99.90;3.70;99951.00;;;;345753;28;91296;-88
2022/04/04 00:08:47;;;;;;;;;;;3.20;99.90;3.80;99943.00;;;;346985;28;87467;-88
2022/04/04 00:08:58;;;;;;;;;;;3.20;99.90;3.70;99956.00;;;;347209;28;90740;-87
2022/04/04 00:09:10;;;;;;;;;;;3.20;99.90;3.80;99952.00;;;;347069;28;87370;-87
2022/04/04 00:09:22;;;;;;;;;;;3.20;99.90;3.70;99945.00;;;;345957;28;89825;-88
2022/04/04 00:09:34;;;;;;;;;;;3.20;99.90;3.80;99949.00;;;;344461;28;88055;-88
2022/04/04 00:09:46;;;;;;;;;;;3.20;99.90;3.70;99950.00;;;;346290;28;90993;-88
2022/04/04 00:09:58;;;;;;;;;;;3.20;99.90;3.70;99949.00;;;;345776;27;86914;-88
2022/04/04 00:10:10;;;;;;;;;;;3.20;99.90;3.70;99945.00;;;;348645;27;90984;-88
2022/04/04 00:10:22;;;;;;;;;;;3.20;99.90;3.70;99950.00;;;;348430;27;87873;-88
2022/04/04 00:10:33;;;;;;;;;;;3.20;99.90;3.70;99953.00;;;;347286;28;89129;-88
2022/04/04 00:10:45;;;;;;;;;;;3.20;99.90;3.80;99952.00;;;;346960;28;88156;-88
2022/04/04 00:10:57;;;;;;;;;;;3.20;99.90;3.80;99950.00;;;;347377;27;90726;-88
2022/04/04 00:11:09;;;;;;;;;;;3.20;99.90;3.70;99947.00;;;;344317;28;85333;-88
2022/04/04 00:11:21;;;;;;;;;;;3.20;99.90;3.70;99949.00;;;;347143;28;89917;-88
2022/04/04 00:11:33;;;;;;;;;;;3.20;99.90;3.70;99952.00;;;;344377;28;86077;-88
2022/04/04 00:11:45;;;;;;;;;;;3.20;99.90;3.70;99950.00;;;;345841;28;89467;-88
2022/04/04 00:11:57;;;;;;;;;;;3.20;99.90;3.70;99952.00;;;;347002;28;86862;-88
2022/04/04 00:12:09;;;;;;;;;;;3.10;99.90;3.70;99950.00;;;;348595;27;90405;-88
2022/04/04 00:12:21;;;;;;;;;;;3.20;99.90;3.70;99949.00;;;;346849;28;87100;-88
2022/04/04 00:12:33;;;;;;;;;;;3.20;99.90;3.70;99954.00;;;;347287;28;87007;-88
2022/04/04 00:12:44;;;;;;;;;;;3.20;99.90;3.70;99954.00;;;;346999;28;87718;-88
2022/04/04 00:12:56;;;;;;;;;;;3.20;99.90;3.70;99961.00;;;;345797;28;90922;-88
2022/04/04 00:13:08;;;;;;;;;;;3.20;99.90;3.70;99950.00;;;;345244;28;88039;-88
2022/04/04 00:13:20;;;;;;;;;;;3.10;99.90;3.70;99954.00;;;;344529;28;86640;-87
2022/04/04 00:13:33;;;;;;;;;;;3.20;99.90;3.80;99951.00;;;;345684;28;86956;-88
2022/04/04 00:13:45;;;;;;;;;;;3.20;99.90;3.70;99953.00;;;;343813;28;91100;-88
2022/04/04 00:13:57;;;;;;;;;;;3.10;99.90;3.70;99951.00;;;;345711;28;86936;-88
2022/04/04 00:14:09;;;;;;;;;;;3.10;99.90;3.70;99948.00;;;;345719;28;90502;-88
2022/04/04 00:14:21;;;;;;;;;;;3.20;99.90;3.70;99947.00;;;;345749;28;87925;-88
2022/04/04 00:14:33;;;;;;;;;;;3.10;99.90;3.70;99943.00;;;;347357;28;88515;-88
2022/04/04 00:14:45;;;;;;;;;;;3.10;99.90;3.70;99947.00;;;;346815;28;86972;-88
2022/04/04 00:14:57;;;;;;;;;;;3.10;99.90;3.70;99950.00;;;;345827;28;90910;-88
2022/04/04 00:15:09;;;;;;;;;;;3.10;99.90;3.70;99944.00;;;;345692;28;88491;-88
2022/04/04 00:15:21;;;;;;;;;;;3.10;99.90;3.70;99946.00;;;;346831;28;90440;-88
2022/04/04 00:15:32;;;;;;;;;;;3.20;99.90;3.70;99954.00;;;;346794;28;87025;-88
2022/04/04 00:15:44;;;;;;;;;;;3.10;99.90;3.80;99946.00;;;;347317;28;90761;-88
2022/04/04 00:15:56;;;;;;;;;;;3.10;99.90;3.70;99948.00;;;;346374;28;87311;-88
2022/04/04 00:16:08;;;;;;;;;;;3.10;99.90;3.70;99948.00;;;;348487;27;89911;-88
2022/04/04 00:16:20;;;;;;;;;;;3.10;99.90;3.70;99941.00;;;;349809;27;87067;-88
2022/04/04 00:16:32;;;;;;;;;;;3.10;99.90;3.70;99948.00;;;;347228;28;89550;-88
2022/04/04 00:16:44;;;;;;;;;;;3.10;99.90;3.70;99943.00;;;;346319;28;88766;-88
2022/04/04 00:16:56;;;;;;;;;;;3.10;99.90;3.80;99952.00;;;;345862;28;90906;-88
2022/04/04 00:17:08;;;;;;;;;;;3.20;99.90;3.70;99957.00;;;;347013;28;87775;-88
2022/04/04 00:17:20;;;;;;;;;;;3.10;99.90;3.80;99946.00;;;;347904;27;89359;-88
2022/04/04 00:17:45;;;;;;;;;;;3.10;99.90;3.70;99955.00;;;;345924;28;86842;-87
2022/04/04 00:18:10;;;;;;;;;;;3.20;99.90;3.70;99955.00;;;;346720;28;89626;-87
2022/04/04 00:18:22;;;;;;;;;;;3.10;99.90;3.80;99955.00;;;;347416;28;86174;-88
2022/04/04 00:18:34;;;;;;;;;;;3.10;99.90;3.80;99949.00;;;;347574;28;89677;-87
2022/04/04 00:18:46;;;;;;;;;;;3.10;99.90;3.80;99950.00;;;;347575;27;88282;-88
2022/04/04 00:18:59;;;;;;;;;;;3.20;99.90;3.70;99952.00;;;;344625;28;88764;-88
2022/04/04 00:19:11;;;;;;;;;;;3.20;99.90;3.60;99951.00;;;;344509;28;86998;-88
2022/04/04 00:19:23;;;;;;;;;;;3.10;99.90;3.70;99946.00;;;;346817;28;90824;-87
2022/04/04 00:19:35;;;;;;;;;;;3.10;99.90;3.70;99957.00;;;;348727;27;86954;-88
2022/04/04 00:19:46;;;;;;;;;;;3.10;99.90;3.70;99955.00;;;;347451;28;89693;-88
2022/04/04 00:19:58;;;;;;;;;;;3.10;99.90;3.70;99952.00;;;;344466;28;86920;-87
2022/04/04 00:20:11;;;;;;;;;;;3.10;99.90;3.70;99952.00;;;;344675;28;89737;-87
2022/04/04 00:20:23;;;;;;;;;;;3.10;99.90;3.70;99952.00;;;;347141;28;87058;-90
2022/04/04 00:20:35;;;;;;;;;;;3.10;99.90;3.70;99950.00;;;;345980;28;90455;-88
2022/04/04 00:20:47;;;;;;;;;;;3.10;99.90;3.60;99954.00;;;;346966;28;87961;-88
2022/04/04 00:21:00;;;;;;;;;;;3.10;99.90;3.60;99947.00;;;;346187;28;90974;-87
2022/04/04 00:21:12;;;;;;;;;;;3.10;99.90;3.60;99951.00;;;;345741;28;86798;-88
2022/04/04 00:21:24;;;;;;;;;;;3.10;99.90;3.70;99952.00;;;;346997;28;88655;-89
2022/04/04 00:21:37;;;;;;;;;;;3.10;99.90;3.80;99962.00;;;;345418;28;88325;-88
2022/04/04 00:21:49;;;;;;;;;;;3.10;99.90;3.70;99958.00;;;;347383;28;89873;-87
2022/04/04 00:22:00;;;;;;;;;;;3.10;99.90;3.70;99956.00;;;;345708;28;88181;-86
2022/04/04 00:22:12;;;;;;;;;;;3.10;99.90;3.70;99952.00;;;;347349;28;90623;-88
2022/04/04 00:22:24;;;;;;;;;;;3.10;99.90;3.70;99951.00;;;;347109;27;87711;-88
2022/04/04 00:22:36;;;;;;;;;;;3.10;99.90;3.70;99952.00;;;;347402;28;88731;-88
2022/04/04 00:22:48;;;;;;;;;;;3.10;99.90;3.60;99947.00;;;;346984;28;87980;-87
2022/04/04 00:23:00;;;;;;;;;;;3.10;99.90;3.60;99950.00;;;;346043;28;89382;-88
2022/04/04 00:23:12;;;;;;;;;;;3.10;99.90;3.60;99957.00;;;;344214;28;86983;-87
2022/04/04 00:23:24;;;;;;;;;;;3.10;99.90;3.60;99952.00;;;;345168;28;89799;-87
2022/04/04 00:23:36;;;;;;;;;;;3.10;99.90;3.60;99949.00;;;;346980;27;86729;-87
2022/04/04 00:23:48;;;;;;;;;;;3.10;99.90;3.60;99950.00;;;;347279;28;90486;-87
2022/04/04 00:23:59;;;;;;;;;;;3.10;99.90;3.60;99946.00;;;;345534;28;87043;-87
2022/04/04 00:24:11;;;;;;;;;;;3.00;99.90;3.60;99955.00;;;;344497;28;90877;-87
2022/04/04 00:24:24;;;;;;;;;;;3.00;99.90;3.70;99955.00;;;;347106;28;86631;-88
2022/04/04 00:24:36;;;;;;;;;;;3.10;99.90;3.60;99947.00;;;;347106;28;89785;-87
2022/04/04 00:24:47;;;;;;;;;;;3.10;99.90;3.60;99947.00;;;;346878;28;87770;-87
2022/04/04 00:24:59;;;;;;;;;;;3.10;99.90;3.70;99952.00;;;;347259;28;90561;-87
2022/04/04 00:25:11;;;;;;;;;;;3.00;99.90;3.60;99947.00;;;;345494;28;86957;-87
2022/04/04 00:25:23;;;;;;;;;;;3.00;99.90;3.60;99952.00;;;;344380;28;90665;-88
2022/04/04 00:25:35;;;;;;;;;;;3.10;99.90;3.60;99953.00;;;;348292;27;86309;-87
2022/04/04 00:25:47;;;;;;;;;;;3.10;99.90;3.60;99960.00;;;;345797;28;89878;-87
2022/04/04 00:25:59;;;;;;;;;;;3.00;99.90;3.60;99953.00;;;;345666;28;87058;-88
2022/04/04 00:26:10;;;;;;;;;;;3.00;99.90;3.70;99952.00;;;;346862;28;90670;-87
2022/04/04 00:26:22;;;;;;;;;;;3.00;99.90;3.70;99959.00;;;;345537;28;87960;-87
2022/04/04 00:26:34;;;;;;;;;;;3.00;99.90;3.70;99956.00;;;;344544;28;90840;-87
2022/04/04 00:26:46;;;;;;;;;;;3.10;99.90;3.70;99954.00;;;;344138;28;88955;-87
2022/04/04 00:26:58;;;;;;;;;;;3.00;99.90;3.70;99961.00;;;;344531;28;90723;-87
2022/04/04 00:27:10;;;;;;;;;;;3.10;99.90;3.70;99942.00;;;;345624;28;87029;-88
2022/04/04 00:27:22;;;;;;;;;;;3.10;99.90;3.70;99954.00;;;;348543;27;90851;-87
2022/04/04 00:27:34;;;;;;;;;;;3.10;99.90;3.70;99946.00;;;;345970;28;87080;-87
2022/04/04 00:27:46;;;;;;;;;;;3.10;99.90;3.70;99958.00;;;;343191;28;90007;-87
2022/04/04 00:27:57;;;;;;;;;;;3.10;99.90;3.70;99950.00;;;;345282;28;87543;-87
2022/04/04 00:28:09;;;;;;;;;;;3.10;99.90;3.70;99953.00;;;;345502;28;87473;-87
2022/04/04 00:28:21;;;;;;;;;;;3.10;99.90;3.70;99958.00;;;;346066;28;87731;-88
2022/04/04 00:28:33;;;;;;;;;;;3.10;99.90;3.70;99955.00;;;;347564;28;91071;-88
2022/04/04 00:28:45;;;;;;;;;;;3.10;99.90;3.70;99953.00;;;;345029;28;87554;-88
2022/04/04 00:28:56;;;;;;;;;;;3.10;99.90;3.70;99953.00;;;;347496;28;87549;-88
2022/04/04 00:29:09;;;;;;;;;;;3.10;99.90;3.70;99950.00;;;;346060;28;86971;-88
2022/04/04 00:29:21;;;;;;;;;;;3.10;99.90;3.60;99952.00;;;;347218;27;90989;-87
2022/04/04 00:29:33;;;;;;;;;;;3.10;99.90;3.60;99955.00;;;;348601;27;87856;-88
2022/04/04 00:29:45;;;;;;;;;;;3.10;99.90;3.70;99946.00;;;;348628;27;90015;-88
2022/04/04 00:29:57;;;;;;;;;;;3.10;99.90;3.60;99953.00;;;;347042;28;87628;-87
2022/04/04 00:30:09;;;;;;;;;;;3.10;99.90;3.60;99949.00;;;;346573;28;90338;-87
2022/04/04 00:30:20;;;;;;;;;;;3.10;99.90;3.50;99953.00;;;;346883;28;88222;-87
2022/04/04 00:30:32;;;;;;;;;;;3.10;99.90;3.60;99953.00;;;;345766;28;90872;-88
2022/04/04 00:30:44;;;;;;;;;;;3.00;99.90;3.60;99958.00;;;;346231;28;87552;-88
2022/04/04 00:30:56;;;;;;;;;;;3.00;99.90;3.70;99950.00;;;;347113;28;89605;-88
2022/04/04 00:31:08;;;;;;;;;;;3.00;99.90;3.70;99960.00;;;;347091;28;87828;-87
2022/04/04 00:31:19;;;;;;;;;;;3.00;99.90;3.60;99953.00;;;;344573;28;88715;-87
2022/04/04 00:31:31;;;;;;;;;;;3.00;99.90;3.60;99954.00;;;;346543;28;86946;-87
2022/04/04 00:31:43;;;;;;;;;;;3.10;99.90;3.70;99955.00;;;;347358;28;88997;-87
2022/04/04 00:31:55;;;;;;;;;;;3.00;99.90;3.70;99955.00;;;;345535;28;87064;-88
2022/04/04 00:32:07;;;;;;;;;;;3.00;99.90;3.70;99958.00;;;;347233;28;88919;-87
2022/04/04 00:32:19;;;;;;;;;;;3.10;99.90;3.70;99951.00;;;;346840;28;88370;-88
2022/04/04 00:32:31;;;;;;;;;;;3.10;99.90;3.70;99948.00;;;;345867;28;91298;-88
2022/04/04 00:32:43;;;;;;;;;;;3.10;99.90;3.70;99949.00;;;;345886;28;88669;-87
2022/04/04 00:32:55;;;;;;;;;;;3.10;99.90;3.70;99958.00;;;;348686;27;90419;-88
2022/04/04 00:33:07;;;;;;;;;;;3.10;99.90;3.70;99955.00;;;;348496;27;86943;-87
2022/04/04 00:33:18;;;;;;;;;;;3.10;99.90;3.60;99944.00;;;;348690;27;88454;-88
2022/04/04 00:33:31;;;;;;;;;;;3.10;99.90;3.60;99949.00;;;;345555;28;86256;-88
2022/04/04 00:33:43;;;;;;;;;;;3.10;99.90;3.70;99945.00;;;;344563;28;89081;-87
2022/04/04 00:33:55;;;;;;;;;;;3.10;99.90;3.70;99946.00;;;;345677;28;88475;-88
2022/04/04 00:34:07;;;;;;;;;;;3.10;99.90;3.70;99955.00;;;;345595;28;89903;-88
2022/04/04 00:34:19;;;;;;;;;;;3.10;99.90;3.70;99956.00;;;;345382;28;85941;-87
2022/04/04 00:34:31;;;;;;;;;;;3.10;99.90;3.70;99951.00;;;;347242;28;89508;-87
2022/04/04 00:34:43;;;;;;;;;;;3.10;99.90;3.80;99949.00;;;;346914;28;88493;-88
2022/04/04 00:34:54;;;;;;;;;;;3.10;99.90;3.70;99954.00;;;;346684;28;90873;-88
2022/04/04 00:35:07;;;;;;;;;;;3.10;99.90;3.70;99955.00;;;;347162;28;85843;-88
2022/04/04 00:35:18;;;;;;;;;;;3.10;99.90;3.70;99959.00;;;;343121;28;90688;-88
2022/04/04 00:35:30;;;;;;;;;;;3.10;99.90;3.70;99945.00;;;;347611;27;88195;-88
2022/04/04 00:35:42;;;;;;;;;;;3.10;99.90;3.70;99951.00;;;;345835;28;90938;-87
2022/04/04 00:35:54;;;;;;;;;;;3.10;99.90;3.70;99950.00;;;;344274;28;88493;-87
2022/04/04 00:36:06;;;;;;;;;;;3.10;99.90;3.70;99954.00;;;;346343;28;91135;-87
2022/04/04 00:36:18;;;;;;;;;;;3.10;99.90;3.70;99948.00;;;;347001;28;86975;-88
2022/04/04 00:36:30;;;;;;;;;;;3.10;99.90;3.70;99946.00;;;;349904;27;89778;-88
2022/04/04 00:36:43;;;;;;;;;;;3.10;99.90;3.70;99952.00;;;;348471;27;87092;-88
2022/04/04 00:36:55;;;;;;;;;;;3.10;99.90;3.70;99952.00;;;;348629;27;91199;-87
2022/04/04 00:37:07;;;;;;;;;;;3.10;99.90;3.60;99952.00;;;;345477;28;86803;-88
2022/04/04 00:37:18;;;;;;;;;;;3.10;99.90;3.60;99953.00;;;;348534;27;90882;-88
2022/04/04 00:37:30;;;;;;;;;;;3.10;99.90;3.70;99952.00;;;;344211;28;88190;-88
2022/04/04 00:37:42;;;;;;;;;;;3.10;99.90;3.70;99947.00;;;;347226;28;88734;-87
2022/04/04 00:37:54;;;;;;;;;;;3.10;99.90;3.70;99955.00;;;;348477;27;87682;-87
2022/04/04 00:38:08;;;;;;;;;;;3.10;99.90;3.70;99939.00;;;;347197;28;91065;-86
2022/04/04 00:38:22;;;;;;;;;;;3.10;99.90;3.60;99953.00;;;;347083;27;88055;-87
2022/04/04 00:38:34;;;;;;;;;;;3.10;99.90;3.70;99956.00;;;;344800;28;90750;-87
2022/04/04 00:38:45;;;;;;;;;;;3.10;99.90;3.70;99950.00;;;;344382;28;88257;-88
2022/04/04 00:38:57;;;;;;;;;;;3.10;99.90;3.70;99955.00;;;;346812;27;89415;-88
2022/04/04 00:39:10;;;;;;;;;;;3.10;99.90;3.70;99949.00;;;;344591;28;86168;-88
2022/04/04 00:39:22;;;;;;;;;;;3.10;99.90;3.70;99958.00;;;;346054;28;89754;-87
2022/04/04 00:39:34;;;;;;;;;;;3.10;99.90;3.70;99948.00;;;;345556;28;87524;-87
2022/04/04 00:39:46;;;;;;;;;;;3.10;99.90;3.70;99946.00;;;;345874;28;87894;-87
2022/04/04 00:39:58;;;;;;;;;;;3.10;99.90;3.70;99945.00;;;;344544;28;86942;-87
2022/04/04 00:40:10;;;;;;;;;;;3.10;99.90;3.70;99946.00;;;;346097;28;88111;-88
2022/04/04 00:40:22;;;;;;;;;;;3.10;99.90;3.70;99949.00;;;;346278;27;86834;-87
2022/04/04 00:40:33;;;;;;;;;;;3.10;99.90;3.80;99951.00;;;;348975;27;90800;-88
2022/04/04 00:40:45;;;;;;;;;;;3.10;99.90;3.80;99949.00;;;;348312;27;86185;-87
2022/04/04 00:40:57;;;;;;;;;;;3.10;99.90;3.80;99954.00;;;;344666;28;90953;-87
2022/04/04 00:41:13;;;;;;;;;;;3.10;99.90;3.80;99951.00;;;;345825;28;87931;-88
2022/04/04 00:41:25;;;;;;;;;;;3.10;99.90;3.70;99946.00;;;;345998;28;88522;-88
2022/04/04 00:41:37;;;;;;;;;;;3.10;99.90;3.60;99950.00;;;;345934;28;87945;-88
2022/04/04 00:41:49;;;;;;;;;;;3.10;99.90;3.70;99950.00;;;;347598;28;87584;-88
2022/04/04 00:42:01;;;;;;;;;;;3.10;99.90;3.70;99954.00;;;;347220;28;86162;-88
2022/04/04 00:42:16;;;;;;;;;;;3.10;99.90;3.80;99952.00;;;;350102;27;90849;-88
2022/04/04 00:42:28;;;;;;;;;;;3.10;99.90;3.70;99949.00;;;;347141;28;88206;-87
2022/04/04 00:42:40;;;;;;;;;;;3.10;99.90;3.70;99951.00;;;;345848;28;90782;-87
2022/04/04 00:42:52;;;;;;;;;;;3.10;99.90;3.70;99958.00;;;;348433;27;88510;-88
2022/04/04 00:43:04;;;;;;;;;;;3.10;99.90;3.70;99946.00;;;;347397;28;90135;-87
2022/04/04 00:43:16;;;;;;;;;;;3.10;99.90;3.80;99949.00;;;;344499;28;87022;-88
2022/04/04 00:43:28;;;;;;;;;;;3.10;99.90;3.80;99951.00;;;;347297;28;90461;-87
2022/04/04 00:43:39;;;;;;;;;;;3.10;99.90;3.80;99951.00;;;;348702;27;87831;-88
2022/04/04 00:43:52;;;;;;;;;;;3.10;99.90;3.70;99954.00;;;;346024;28;89890;-88
2022/04/04 00:44:04;;;;;;;;;;;3.10;99.90;3.70;99947.00;;;;346903;28;87064;-86
2022/04/04 00:44:16;;;;;;;;;;;3.10;99.90;3.70;99942.00;;;;346106;28;91318;-87
2022/04/04 00:44:27;;;;;;;;;;;3.10;99.90;3.70;99949.00;;;;347053;28;88272;-88
2022/04/04 00:44:39;;;;;;;;;;;3.10;99.90;3.60;99944.00;;;;346075;28;89362;-88
2022/04/04 00:44:51;;;;;;;;;;;3.10;99.90;3.70;99950.00;;;;347009;28;87094;-87
2022/04/04 00:45:03;;;;;;;;;;;3.10;99.90;3.70;99950.00;;;;344642;28;90831;-88
2022/04/04 00:45:15;;;;;;;;;;;3.10;99.90;3.70;99953.00;;;;347218;28;86845;-87
2022/04/04 00:45:27;;;;;;;;;;;3.10;99.90;3.70;99953.00;;;;348479;27;90836;-87
2022/04/04 00:45:44;;;;;;;;;;;3.10;99.90;3.70;99953.00;;;;347031;28;86395;-87
2022/04/04 00:45:56;;;;;;;;;;;3.10;99.90;3.80;99949.00;;;;348937;27;90343;-88
2022/04/04 00:46:08;;;;;;;;;;;3.10;99.90;3.80;99952.00;;;;348468;27;86991;-87
2022/04/04 00:46:19;;;;;;;;;;;3.10;99.90;3.80;99953.00;;;;347459;28;90738;-88
2022/04/04 00:46:31;;;;;;;;;;;3.10;99.90;3.80;99946.00;;;;348566;27;87372;-88
2022/04/04 00:46:43;;;;;;;;;;;3.10;99.90;3.80;99940.00;;;;345884;28;91344;-87
2022/04/04 00:46:56;;;;;;;;;;;3.10;99.90;3.80;99951.00;;;;347305;28;87042;-88
2022/04/04 00:47:08;;;;;;;;;;;3.10;99.90;3.70;99953.00;;;;349405;27;87369;-88
2022/04/04 00:47:20;;;;;;;;;;;3.10;99.90;3.60;99949.00;;;;348490;27;88216;-88
2022/04/04 00:47:32;;;;;;;;;;;3.10;99.90;3.70;99953.00;;;;348847;27;89527;-87
2022/04/04 00:47:43;;;;;;;;;;;3.10;99.90;3.70;99946.00;;;;347134;28;88049;-87
2022/04/04 00:47:55;;;;;;;;;;;3.10;99.90;3.70;99941.00;;;;344787;28;89278;-87
2022/04/04 00:48:07;;;;;;;;;;;3.10;99.90;3.70;99946.00;;;;343713;28;87943;-88
2022/04/04 00:48:19;;;;;;;;;;;3.10;99.90;3.70;99942.00;;;;347576;28;88144;-87
2022/04/04 00:48:31;;;;;;;;;;;3.10;99.90;3.70;99946.00;;;;345735;28;87215;-88
2022/04/04 00:48:43;;;;;;;;;;;3.10;99.90;3.70;99947.00;;;;346496;28;86992;-87
2022/04/04 00:48:55;;;;;;;;;;;3.10;99.90;3.70;99946.00;;;;345770;28;86886;-87
2022/04/04 00:49:08;;;;;;;;;;;3.10;99.90;3.70;99951.00;;;;347857;27;90086;-86
2022/04/04 00:49:20;;;;;;;;;;;3.10;99.90;3.70;99943.00;;;;347226;28;86961;-87
2022/04/04 00:49:32;;;;;;;;;;;3.10;99.90;3.60;99943.00;;;;347326;28;92495;-87
2022/04/04 00:49:43;;;;;;;;;;;3.10;99.90;3.70;99949.00;;;;346613;28;86280;-87
2022/04/04 00:49:56;;;;;;;;;;;3.10;99.90;3.70;99948.00;;;;346163;28;88930;-88
2022/04/04 00:50:08;;;;;;;;;;;3.10;99.90;3.60;99953.00;;;;347673;27;86869;-87
2022/04/04 00:50:22;;;;;;;;;;;3.10;99.90;3.60;99945.00;;;;347535;28;88282;-88
2022/04/04 00:50:34;;;;;;;;;;;3.10;99.90;3.60;99948.00;;;;345363;28;87029;-88
2022/04/04 00:50:46;;;;;;;;;;;3.10;99.90;3.70;99946.00;;;;347447;28;89601;-88
2022/04/04 00:50:58;;;;;;;;;;;3.10;99.90;3.70;99959.00;;;;343223;28;86077;-87
2022/04/04 00:51:09;;;;;;;;;;;3.10;99.90;3.70;99949.00;;;;345996;28;90573;-88
2022/04/04 00:51:21;;;;;;;;;;;3.00;99.90;3.70;99943.00;;;;345872;28;88635;-88
2022/04/04 00:51:33;;;;;;;;;;;3.10;99.90;3.70;99944.00;;;;345356;28;90747;-87
2022/04/04 00:51:45;;;;;;;;;;;3.10;99.90;3.70;99948.00;;;;348453;27;88290;-88
2022/04/04 00:51:57;;;;;;;;;;;3.10;99.90;3.70;99955.00;;;;347442;28;90783;-88
2022/04/04 00:52:08;;;;;;;;;;;3.10;99.90;3.70;99947.00;;;;346711;27;86454;-87
2022/04/04 00:52:20;;;;;;;;;;;3.10;99.90;3.70;99942.00;;;;348922;27;89656;-87
2022/04/04 00:52:32;;;;;;;;;;;3.10;99.90;3.60;99938.00;;;;347079;28;87914;-86
2022/04/04 00:52:44;;;;;;;;;;;3.10;99.90;3.60;99949.00;;;;347438;28;89881;-87
2022/04/04 00:52:56;;;;;;;;;;;3.10;99.90;3.60;99939.00;;;;345708;28;87080;-87
2022/04/04 00:53:08;;;;;;;;;;;3.10;99.90;3.60;99941.00;;;;346005;28;89729;-87
2022/04/04 00:53:20;;;;;;;;;;;3.00;99.90;3.50;99945.00;;;;345931;28;86012;-87
2022/04/04 00:53:32;;;;;;;;;;;3.00;99.90;3.60;99943.00;;;;344613;28;90772;-87
2022/04/04 00:53:44;;;;;;;;;;;3.00;99.90;3.60;99946.00;;;;344374;28;87744;-88
2022/04/04 00:53:56;;;;;;;;;;;3.00;99.90;3.70;99949.00;;;;343340;28;90120;-87
2022/04/04 00:54:08;;;;;;;;;;;3.00;99.90;3.60;99934.00;;;;345922;28;86186;-87
2022/04/04 00:54:19;;;;;;;;;;;3.00;99.90;3.60;99944.00;;;;345927;28;91107;-86
2022/04/04 00:54:32;;;;;;;;;;;3.00;99.90;3.60;99942.00;;;;348653;27;87478;-87
2022/04/04 00:54:45;;;;;;;;;;;3.00;99.90;3.60;99942.00;;;;344651;28;90899;-87
2022/04/04 00:54:57;;;;;;;;;;;3.00;99.90;3.70;99946.00;;;;344522;28;86846;-87
2022/04/04 00:55:09;;;;;;;;;;;3.10;99.90;3.70;99943.00;;;;344782;28;89676;-87
2022/04/04 00:55:21;;;;;;;;;;;3.00;99.90;3.70;99940.00;;;;346000;28;87139;-87
2022/04/04 00:55:33;;;;;;;;;;;3.00;99.90;3.70;99946.00;;;;347664;27;90815;-88
2022/04/04 00:55:45;;;;;;;;;;;3.00;99.90;3.70;99942.00;;;;347289;28;86987;-87
2022/04/04 00:55:56;;;;;;;;;;;3.10;99.90;3.70;99936.00;;;;345773;28;89683;-88
2022/04/04 00:56:08;;;;;;;;;;;3.10;99.90;3.70;99937.00;;;;348436;27;87068;-88
2022/04/04 00:56:21;;;;;;;;;;;3.00;99.90;3.60;99939.00;;;;347541;28;89498;-87
2022/04/04 00:56:34;;;;;;;;;;;3.10;99.90;3.60;99937.00;;;;349964;27;88039;-88
2022/04/04 00:56:46;;;;;;;;;;;3.10;99.90;3.70;99939.00;;;;346449;28;89618;-87
2022/04/04 00:56:58;;;;;;;;;;;3.10;99.90;3.70;99948.00;;;;348506;27;86965;-88
2022/04/04 00:57:10;;;;;;;;;;;3.00;99.90;3.60;99938.00;;;;347545;28;88489;-88
2022/04/04 00:57:22;;;;;;;;;;;3.10;99.90;3.60;99937.00;;;;347113;27;87021;-88
2022/04/04 00:57:35;;;;;;;;;;;3.00;99.90;3.60;99941.00;;;;345939;28;91056;-87
2022/04/04 00:57:47;;;;;;;;;;;3.00;99.90;3.60;99942.00;;;;347032;28;87024;-87
2022/04/04 00:57:59;;;;;;;;;;;3.00;99.90;3.70;99945.00;;;;347030;28;90369;-88
2022/04/04 00:58:11;;;;;;;;;;;3.00;99.90;3.70;99934.00;;;;347220;28;86082;-88
2022/04/04 00:58:23;;;;;;;;;;;3.00;99.90;3.60;99942.00;;;;347681;28;87401;-88
2022/04/04 00:58:36;;;;;;;;;;;3.00;99.90;3.60;99944.00;;;;347132;28;87567;-88
2022/04/04 00:58:48;;;;;;;;;;;3.00;99.90;3.60;99942.00;;;;345889;28;91631;-87
2022/04/04 00:59:00;;;;;;;;;;;3.00;99.90;3.60;99934.00;;;;347258;28;88180;-87
2022/04/04 00:59:14;;;;;;;;;;;3.00;99.90;3.60;99935.00;;;;348822;27;89591;-88
2022/04/04 00:59:26;;;;;;;;;;;3.00;99.90;3.60;99944.00;;;;348528;27;88242;-87
2022/04/04 00:59:37;;;;;;;;;;;3.00;99.90;3.60;99930.00;;;;346109;28;90000;-87
2022/04/04 00:59:49;;;;;;;;;;;3.00;99.90;3.60;99939.00;;;;345934;28;86176;-87
2022/04/04 01:00:09;;;;;;;;;;;3.00;99.90;3.60;99944.00;;;;346220;28;90186;-88
2022/04/04 01:00:21;;;;;;;;;;;3.00;99.90;3.60;99939.00;;;;347181;27;88090;-87
2022/04/04 01:00:32;;;;;;;;;;;3.00;99.90;3.60;99940.00;;;;347038;28;89643;-87
2022/04/04 01:00:45;;;;;;;;;;;3.00;99.90;3.60;99940.00;;;;344402;28;88058;-87
2022/04/04 01:00:58;;;;;;;;;;;3.00;99.90;3.60;99949.00;;;;348351;27;88480;-87
2022/04/04 01:01:10;;;;;;;;;;;3.00;99.90;3.50;99935.00;;;;344050;28;88247;-87
2022/04/04 01:01:22;;;;;;;;;;;3.00;99.90;3.60;99935.00;;;;344623;28;91111;-87
2022/04/04 01:01:34;;;;;;;;;;;3.00;99.90;3.50;99940.00;;;;345695;28;88820;-87
2022/04/04 01:01:46;;;;;;;;;;;3.00;99.90;3.50;99942.00;;;;345996;28;89772;-87